Time;durP1;ratioP1;P1;durP2;ratioP2;P2;SDS_P1;SDS_P2;PMS_P1;PMS_P2;Temp;Humidity;BMP_temperature;BMP_pressure;BME280_temperature;BME280_humidity;BME280_pressure;Samples;Min_cycle;Max_cycle;Signal;HPM_P1;HPM_P2
2023/08/26 00:01:32;;;;;;;2.60;2.40;;;17.30;99.90;;;;;;5036473;28;20037;-66
2023/08/26 00:03:58;;;;;;;2.30;2.10;;;17.30;99.90;;;;;;5054427;28;20072;-66
2023/08/26 00:06:24;;;;;;;2.55;2.35;;;17.30;99.90;;;;;;5054017;28;20067;-66
2023/08/26 00:08:52;;;;;;;2.78;2.40;;;17.20;99.90;;;;;;5054158;28;20049;-66
2023/08/26 00:11:18;;;;;;;2.50;2.30;;;17.20;99.90;;;;;;5036293;28;20056;-66
2023/08/26 00:13:43;;;;;;;2.47;2.28;;;17.30;99.90;;;;;;5054378;28;20421;-66
2023/08/26 00:16:09;;;;;;;2.63;2.42;;;17.20;99.90;;;;;;5054166;28;20041;-66
2023/08/26 00:18:35;;;;;;;2.72;2.50;;;17.10;99.90;;;;;;5053808;28;20548;-66
2023/08/26 00:21:00;;;;;;;3.20;2.70;;;17.20;99.90;;;;;;5054250;28;20041;-66
2023/08/26 00:23:26;;;;;;;2.75;2.55;;;17.10;99.90;;;;;;5053694;28;20493;-67
2023/08/26 00:25:52;;;;;;;2.40;2.20;;;17.10;99.90;;;;;;5054105;28;20037;-66
2023/08/26 00:28:17;;;;;;;2.65;2.30;;;17.00;99.90;;;;;;5054002;28;20040;-66
2023/08/26 00:30:44;;;;;;;2.55;2.35;;;17.00;99.90;;;;;;5053973;28;20044;-66
2023/08/26 00:33:09;;;;;;;3.90;2.50;;;17.00;99.90;;;;;;5053872;28;20144;-67
2023/08/26 00:35:37;;;;;;;2.17;1.98;;;16.90;99.90;;;;;;5054087;28;20064;-66
2023/08/26 00:38:03;;;;;;;2.20;2.00;;;17.00;99.90;;;;;;5053832;28;20412;-66
2023/08/26 00:40:35;;;;;;;2.35;2.00;;;16.90;99.90;;;;;;5053853;28;20108;-66
2023/08/26 00:43:06;;;;;;;1.70;1.60;;;16.90;99.90;;;;;;5053597;28;20039;-66
2023/08/26 00:45:32;;;;;;;2.08;1.90;;;16.80;99.90;;;;;;5053494;28;20435;-61
2023/08/26 00:47:58;;;;;;;2.47;2.00;;;16.80;99.90;;;;;;5053676;28;20040;-61
2023/08/26 00:50:23;;;;;;;1.80;1.70;;;16.80;99.90;;;;;;5035479;28;20037;-61
2023/08/26 00:52:49;;;;;;;2.00;1.85;;;16.80;99.90;;;;;;5032497;28;20056;-61
2023/08/26 00:55:14;;;;;;;1.88;1.77;;;16.70;99.90;;;;;;5034372;28;20044;-61
2023/08/26 00:57:41;;;;;;;1.70;1.60;;;16.70;99.90;;;;;;5052016;28;20044;-66
2023/08/26 01:00:08;;;;;;;2.00;1.70;;;17.50;99.90;;;;;;5053468;28;20033;-66
2023/08/26 01:02:34;;;;;;;1.80;1.70;;;16.60;99.90;;;;;;5053441;28;20112;-66
2023/08/26 01:05:00;;;;;;;1.70;1.42;;;16.60;99.90;;;;;;5035220;28;20416;-67
2023/08/26 01:07:26;;;;;;;1.70;1.60;;;16.60;99.90;;;;;;5053359;28;20049;-67
2023/08/26 01:09:51;;;;;;;1.55;1.40;;;16.60;99.90;;;;;;5053323;28;20116;-66
2023/08/26 01:12:35;;;;;;;1.50;1.38;;;16.50;99.90;;;;;;5053355;28;20508;-66
2023/08/26 01:15:09;;;;;;;1.30;1.20;;;16.50;99.90;;;;;;5053248;28;20127;-66
2023/08/26 01:17:35;;;;;;;1.50;1.40;;;16.40;99.90;;;;;;5053134;28;20036;-67
2023/08/26 01:20:03;;;;;;;1.55;1.38;;;16.40;99.90;;;;;;5052927;28;20037;-67
2023/08/26 01:22:32;;;;;;;1.67;1.40;;;16.40;99.90;;;;;;5052865;28;20042;-67
2023/08/26 01:24:58;;;;;;;1.33;1.13;;;16.70;99.90;;;;;;5053151;28;20041;-66
2023/08/26 01:27:24;;;;;;;1.75;1.25;;;16.20;99.90;;;;;;5053115;28;20045;-67
2023/08/26 01:29:50;;;;;;;1.63;1.50;;;16.30;99.90;;;;;;5053101;28;20037;-68
2023/08/26 01:32:40;;;;;;;1.40;1.30;;;16.30;99.90;;;;;;5052797;28;20377;-67
2023/08/26 01:35:12;;;;;;;1.42;1.30;;;16.30;99.90;;;;;;5053085;28;20477;-67
2023/08/26 01:37:41;;;;;;;1.95;1.75;;;16.30;99.90;;;;;;5052916;28;20044;-67
2023/08/26 01:40:09;;;;;;;1.50;1.40;;;16.30;99.90;;;;;;5052988;28;20384;-67
2023/08/26 01:42:39;;;;;;;1.48;1.38;;;16.30;99.90;;;;;;5035083;28;20045;-67
2023/08/26 01:45:06;;;;;;;1.83;1.42;;;16.20;99.90;;;;;;5052732;28;20049;-67
2023/08/26 01:47:32;;;;;;;1.40;1.30;;;16.20;99.90;;;;;;5052639;28;20044;-66
2023/08/26 01:49:57;;;;;;;1.50;1.40;;;16.20;99.90;;;;;;5052905;28;20124;-66
2023/08/26 01:52:23;;;;;;;1.38;1.27;;;16.10;99.90;;;;;;5052847;28;20492;-66
2023/08/26 01:54:49;;;;;;;2.25;1.67;;;16.00;99.90;;;;;;5054307;28;20094;-67
2023/08/26 01:57:15;;;;;;;1.52;1.42;;;16.10;99.90;;;;;;5056585;28;20117;-67
2023/08/26 01:59:42;;;;;;;1.60;1.50;;;16.40;99.90;;;;;;5056855;28;20029;-67
2023/08/26 02:02:08;;;;;;;1.40;1.30;;;16.00;99.90;;;;;;5089772;22;20112;-66
2023/08/26 02:04:39;;;;;;;1.70;1.60;;;16.00;99.90;;;;;;5097276;28;20090;-64
2023/08/26 02:07:05;;;;;;;1.40;1.30;;;16.00;99.90;;;;;;5097041;28;20438;-64
2023/08/26 02:09:30;;;;;;;1.75;1.45;;;16.00;99.90;;;;;;5097012;28;20435;-64
2023/08/26 02:11:56;;;;;;;2.30;1.83;;;15.90;99.90;;;;;;5096614;28;20031;-64
2023/08/26 02:14:22;;;;;;;1.55;1.30;;;15.90;99.90;;;;;;5096568;28;20048;-64
2023/08/26 02:16:47;;;;;;;1.20;1.20;;;16.00;99.90;;;;;;5096454;28;20086;-64
2023/08/26 02:19:14;;;;;;;1.70;1.33;;;15.90;99.90;;;;;;5078925;28;20063;-64
2023/08/26 02:21:40;;;;;;;1.40;1.30;;;15.60;99.90;;;;;;5096538;28;20082;-64
2023/08/26 02:24:06;;;;;;;1.60;1.50;;;15.80;99.90;;;;;;5096705;28;20028;-64
2023/08/26 02:26:32;;;;;;;1.67;1.30;;;15.70;99.90;;;;;;5096653;28;20281;-64
2023/08/26 02:28:58;;;;;;;2.22;1.23;;;15.80;99.90;;;;;;5096289;28;20040;-64
2023/08/26 02:31:24;;;;;;;1.30;1.20;;;;;;;;;;5096524;28;20094;-64
2023/08/26 02:33:50;;;;;;;1.33;1.20;;;;;;;;;;5078087;28;20075;-64
2023/08/26 02:36:15;;;;;;;1.60;1.50;;;;;;;;;;5096320;28;20075;-64
2023/08/26 02:38:41;;;;;;;2.40;1.55;;;;;;;;;;5078090;28;20072;-64
2023/08/26 02:41:07;;;;;;;1.73;1.63;;;;;;;;;;5078225;28;20048;-64
2023/08/26 02:43:33;;;;;;;1.17;1.15;;;;;;;;;;5078216;28;20054;-64
2023/08/26 02:45:59;;;;;;;1.48;1.38;;;;;;;;;;5096301;28;20450;-64
2023/08/26 02:48:26;;;;;;;1.60;1.50;;;;;;;;;;5096210;28;20076;-64
2023/08/26 02:50:59;;;;;;;1.25;1.15;;;;;;;;;;5095813;28;20040;-64
2023/08/26 02:53:26;;;;;;;1.27;1.17;;;;;;;;;;5077955;28;20491;-64
2023/08/26 02:55:52;;;;;;;1.20;1.10;;;;;;;;;;5095682;28;20040;-64
2023/08/26 02:58:19;;;;;;;1.15;1.05;;;;;;;;;;5077627;28;20048;-64
2023/08/26 03:00:46;;;;;;;1.45;1.33;;;;;;;;;;5077387;28;20036;-64
2023/08/26 03:03:12;;;;;;;1.50;1.40;;;;;;;;;;5095962;28;20044;-64
2023/08/26 03:05:38;;;;;;;2.22;1.58;;;;;;;;;;5095727;28;20040;-64
2023/08/26 03:08:04;;;;;;;2.10;1.30;;;;;;;;;;5095854;28;20067;-64
2023/08/26 03:10:31;;;;;;;2.40;1.45;;;;;;;;;;5077477;28;20047;-64
2023/08/26 03:12:57;;;;;;;1.30;1.20;;;;;;;;;;5095791;28;20395;-64
2023/08/26 03:15:23;;;;;;;1.73;1.40;;;;;;;;;;5095889;28;20040;-64
2023/08/26 03:17:49;;;;;;;1.60;1.50;;;;;;;;;;5095556;28;20048;-64
2023/08/26 03:20:15;;;;;;;1.40;1.30;;;;;;;;;;5095273;28;20479;-64
2023/08/26 03:22:41;;;;;;;1.10;1.00;;;;;;;;;;5095518;28;20094;-64
2023/08/26 03:25:07;;;;;;;1.38;1.27;;;;;;;;;;5095557;28;20040;-64
2023/08/26 03:27:33;;;;;;;2.42;1.40;;;;;;;;;;5095430;28;20072;-64
2023/08/26 03:29:59;;;;;;;1.40;1.30;;;;;;;;;;5095390;28;20040;-64
2023/08/26 03:32:26;;;;;;;1.92;1.73;;;;;;;;;;5095334;28;20036;-65
2023/08/26 03:34:52;;;;;;;1.85;1.58;;;;;;;;;;5095003;28;20043;-64
2023/08/26 03:37:18;;;;;;;1.20;1.10;;;;;;;;;;5095156;28;20051;-67
2023/08/26 03:39:44;;;;;;;1.67;1.52;;;;;;;;;;5094931;28;20051;-67
2023/08/26 03:42:09;;;;;;;1.30;1.20;;;15.30;99.90;;;;;;5095130;28;20036;-67
2023/08/26 03:44:35;;;;;;;1.40;1.30;;;15.20;99.90;;;;;;5093631;28;20422;-67
2023/08/26 03:47:01;;;;;;;1.35;1.20;;;15.10;99.90;;;;;;5077189;28;20036;-67
2023/08/26 03:49:26;;;;;;;1.88;1.40;;;15.10;99.90;;;;;;5076972;28;20031;-66
2023/08/26 03:51:52;;;;;;;2.03;1.75;;;15.10;99.90;;;;;;5094625;28;20105;-67
2023/08/26 03:54:17;;;;;;;1.30;1.20;;;15.00;99.90;;;;;;5094696;28;20035;-67
2023/08/26 03:56:43;;;;;;;1.73;1.45;;;15.00;99.90;;;;;;5094462;28;20050;-67
2023/08/26 03:59:09;;;;;;;1.55;1.45;;;15.20;99.90;;;;;;5094883;28;20032;-67
2023/08/26 04:01:35;;;;;;;1.35;1.10;;;14.90;99.90;;;;;;5094461;28;20048;-67
2023/08/26 04:04:00;;;;;;;1.20;1.10;;;14.90;99.90;;;;;;5094727;28;20398;-67
2023/08/26 04:06:26;;;;;;;1.10;1.10;;;14.80;99.90;;;;;;5094669;28;20040;-67
2023/08/26 04:08:52;;;;;;;1.85;1.33;;;14.80;99.90;;;;;;5094658;28;20051;-67
2023/08/26 04:11:17;;;;;;;1.30;1.20;;;14.80;99.90;;;;;;5094278;28;20040;-67
2023/08/26 04:13:46;;;;;;;1.30;1.20;;;14.60;99.90;;;;;;5094236;28;20100;-67
2023/08/26 04:16:12;;;;;;;1.40;1.30;;;14.70;99.90;;;;;;5059706;28;20051;-67
2023/08/26 04:18:37;;;;;;;1.38;1.27;;;14.60;99.90;;;;;;5093881;28;20036;-67
2023/08/26 04:21:04;;;;;;;0.80;0.80;;;14.60;99.90;;;;;;5094163;28;20512;-67
2023/08/26 04:23:30;;;;;;;1.42;1.33;;;14.60;99.90;;;;;;5094349;28;20048;-67
2023/08/26 04:26:00;;;;;;;1.27;1.10;;;14.60;99.90;;;;;;5094433;28;20046;-65
2023/08/26 04:28:26;;;;;;;1.25;1.15;;;14.80;99.90;;;;;;5094156;28;20071;-64
2023/08/26 04:30:52;;;;;;;1.23;1.13;;;14.80;99.90;;;;;;5093852;28;20036;-64
2023/08/26 04:33:18;;;;;;;1.25;1.15;;;14.80;99.90;;;;;;5094162;28;20093;-64
2023/08/26 04:35:44;;;;;;;1.67;1.10;;;15.00;99.90;;;;;;5093798;28;20040;-64
2023/08/26 04:38:10;;;;;;;1.15;1.00;;;14.70;99.90;;;;;;5094120;28;20119;-64
2023/08/26 04:40:35;;;;;;;1.48;1.20;;;14.90;99.90;;;;;;5094014;28;20443;-66
2023/08/26 04:43:03;;;;;;;1.45;1.10;;;14.80;99.90;;;;;;5059142;28;20064;-64
2023/08/26 04:45:29;;;;;;;1.00;1.00;;;14.70;99.90;;;;;;5093961;28;20040;-64
2023/08/26 04:47:55;;;;;;;0.98;0.90;;;14.80;99.90;;;;;;5094059;28;20117;-67
2023/08/26 04:50:20;;;;;;;2.45;1.25;;;14.70;99.90;;;;;;5093916;28;20048;-67
2023/08/26 04:52:46;;;;;;;0.85;0.85;;;14.80;99.90;;;;;;5093812;28;20032;-67
2023/08/26 04:55:12;;;;;;;1.25;1.00;;;14.60;99.90;;;;;;5075717;28;20048;-67
2023/08/26 04:57:37;;;;;;;1.63;1.40;;;14.50;99.90;;;;;;5093387;28;20487;-67
2023/08/26 05:00:16;;;;;;;1.10;1.00;;;14.50;99.90;;;;;;5093758;28;20036;-67
2023/08/26 05:02:42;;;;;;;1.88;1.00;;;14.50;99.90;;;;;;5092096;28;20066;-67
2023/08/26 05:05:07;;;;;;;1.00;1.00;;;14.40;99.90;;;;;;5093638;28;20040;-68
2023/08/26 05:07:33;;;;;;;0.90;0.90;;;14.60;99.90;;;;;;5093554;28;20047;-67
2023/08/26 05:09:59;;;;;;;1.15;0.90;;;14.40;99.90;;;;;;5093566;28;20040;-69
2023/08/26 05:12:26;;;;;;;1.58;1.15;;;14.60;99.90;;;;;;5093186;28;20177;-67
2023/08/26 05:14:51;;;;;;;1.33;0.90;;;14.80;99.90;;;;;;5093192;28;20086;-67
2023/08/26 05:17:17;;;;;;;0.90;0.80;;;14.70;99.90;;;;;;5093438;28;20439;-67
2023/08/26 05:19:42;;;;;;;0.90;0.90;;;14.60;99.90;;;;;;5093408;28;20039;-67
2023/08/26 05:22:08;;;;;;;1.00;0.90;;;14.60;99.90;;;;;;5075034;28;20098;-67
2023/08/26 05:24:34;;;;;;;1.15;1.05;;;14.80;99.90;;;;;;5093104;28;20036;-67
2023/08/26 05:26:59;;;;;;;1.27;1.00;;;14.80;99.90;;;;;;5093339;28;20074;-67
2023/08/26 05:29:25;;;;;;;1.17;0.98;;;14.90;99.90;;;;;;5074211;28;20039;-67
2023/08/26 05:31:50;;;;;;;0.70;0.70;;;14.90;99.90;;;;;;5093297;28;20490;-67
2023/08/26 05:34:16;;;;;;;0.73;0.70;;;14.80;99.90;;;;;;5093274;28;20040;-67
2023/08/26 05:36:41;;;;;;;1.35;0.90;;;14.60;99.90;;;;;;5074974;28;20071;-64
2023/08/26 05:39:07;;;;;;;1.60;1.23;;;15.00;99.90;;;;;;5093197;28;20038;-64
2023/08/26 05:41:33;;;;;;;1.00;0.90;;;15.10;99.90;;;;;;5093157;28;20028;-65
2023/08/26 05:43:59;;;;;;;1.27;0.95;;;15.10;99.90;;;;;;5093244;28;20089;-64
2023/08/26 05:46:24;;;;;;;1.17;1.00;;;15.10;99.90;;;;;;5092818;28;20076;-64
2023/08/26 05:48:50;;;;;;;1.38;0.88;;;15.00;99.90;;;;;;5093207;28;20071;-65
2023/08/26 05:51:15;;;;;;;2.08;1.20;;;15.00;99.90;;;;;;5074760;28;20036;-65
2023/08/26 05:53:41;;;;;;;2.70;1.30;;;15.70;99.90;;;;;;5074772;28;20133;-65
2023/08/26 05:56:06;;;;;;;1.20;1.10;;;15.20;99.90;;;;;;5092697;28;20391;-64
2023/08/26 05:58:32;;;;;;;0.93;0.90;;;15.00;99.90;;;;;;5093098;28;20090;-66
2023/08/26 06:00:58;;;;;;;2.15;1.30;;;15.10;99.90;;;;;;5092887;28;20048;-66
2023/08/26 06:03:23;;;;;;;1.75;1.20;;;15.30;99.90;;;;;;5093004;28;20039;-67
2023/08/26 06:05:49;;;;;;;1.27;1.10;;;15.30;99.90;;;;;;5092962;28;20028;-67
2023/08/26 06:08:15;;;;;;;2.97;1.20;;;15.20;99.90;;;;;;5074552;28;20036;-67
2023/08/26 06:10:40;;;;;;;1.27;1.17;;;15.40;99.90;;;;;;5092955;28;20115;-67
2023/08/26 06:13:06;;;;;;;1.27;1.02;;;15.40;99.90;;;;;;5092884;28;20072;-67
2023/08/26 06:15:31;;;;;;;1.85;1.50;;;15.30;99.90;;;;;;5092573;28;20403;-67
2023/08/26 06:17:59;;;;;;;1.50;1.40;;;15.50;99.90;;;;;;5074882;28;20086;-67
2023/08/26 06:20:25;;;;;;;1.58;1.20;;;15.50;99.90;;;;;;5092729;28;20410;-66
2023/08/26 06:22:51;;;;;;;1.70;1.17;;;15.70;99.90;;;;;;5092831;28;20040;-67
2023/08/26 06:25:17;;;;;;;1.25;1.15;;;15.60;99.90;;;;;;5074471;28;20584;-67
2023/08/26 06:27:43;;;;;;;1.58;1.15;;;15.70;99.90;;;;;;5074385;28;20036;-67
2023/08/26 06:30:10;;;;;;;1.52;1.35;;;15.70;99.90;;;;;;5092778;28;20036;-67
2023/08/26 06:32:35;;;;;;;1.85;1.55;;;15.70;99.90;;;;;;5092674;28;20115;-66
2023/08/26 06:35:01;;;;;;;1.38;1.25;;;15.70;99.90;;;;;;5092664;28;20459;-68
2023/08/26 06:37:27;;;;;;;1.00;1.00;;;15.70;99.90;;;;;;5092579;28;20079;-67
2023/08/26 06:39:52;;;;;;;1.38;1.27;;;15.70;99.90;;;;;;5092386;28;20478;-66
2023/08/26 06:42:18;;;;;;;1.50;1.40;;;15.60;99.90;;;;;;5096264;28;20028;-66
2023/08/26 06:44:44;;;;;;;1.15;1.02;;;15.90;99.90;;;;;;5096341;28;20580;-66
2023/08/26 06:47:09;;;;;;;1.40;1.30;;;16.00;99.90;;;;;;5096395;28;20487;-68
2023/08/26 06:49:35;;;;;;;2.08;1.77;;;15.70;99.90;;;;;;5096148;28;20040;-67
2023/08/26 06:52:01;;;;;;;2.20;1.48;;;15.80;99.90;;;;;;5096217;28;20601;-67
2023/08/26 06:54:27;;;;;;;2.17;1.20;;;15.80;99.90;;;;;;5096117;28;20032;-68
2023/08/26 06:56:52;;;;;;;1.35;1.20;;;15.80;99.90;;;;;;5095704;28;20051;-68
2023/08/26 06:59:18;;;;;;;3.65;1.50;;;15.80;99.90;;;;;;5096004;28;20032;-71
2023/08/26 07:01:44;;;;;;;1.88;1.52;;;15.90;99.90;;;;;;5095555;28;20644;-72
2023/08/26 07:04:11;;;;;;;1.30;1.20;;;16.00;99.90;;;;;;5077801;28;20032;-71
2023/08/26 07:06:37;;;;;;;1.70;1.60;;;15.60;99.90;;;;;;5095907;28;20506;-67
2023/08/26 07:09:06;;;;;;;1.70;1.60;;;15.70;99.90;;;;;;5077510;28;20086;-67
2023/08/26 07:11:32;;;;;;;2.97;2.10;;;16.00;99.90;;;;;;5095729;28;20036;-67
2023/08/26 07:13:58;;;;;;;2.13;1.92;;;16.10;99.90;;;;;;5095796;28;20058;-67
2023/08/26 07:16:27;;;;;;;2.35;1.90;;;16.10;99.90;;;;;;5095698;28;20044;-66
2023/08/26 07:18:53;;;;;;;1.63;1.52;;;16.40;99.90;;;;;;5095376;28;20169;-67
2023/08/26 07:21:19;;;;;;;1.92;1.83;;;16.30;99.90;;;;;;5095672;28;20557;-67
2023/08/26 07:23:44;;;;;;;2.00;1.88;;;16.40;99.90;;;;;;5095581;28;20036;-67
2023/08/26 07:26:10;;;;;;;2.50;2.30;;;16.50;99.90;;;;;;5095470;28;20035;-73
2023/08/26 07:28:36;;;;;;;2.25;2.05;;;16.60;99.90;;;;;;5077283;28;20055;-67
2023/08/26 07:31:05;;;;;;;2.67;2.00;;;16.60;99.90;;;;;;5095412;28;20039;-67
2023/08/26 07:33:32;;;;;;;2.45;2.25;;;16.70;99.90;;;;;;5095186;28;20040;-68
2023/08/26 07:36:06;;;;;;;1.77;1.67;;;16.70;99.90;;;;;;5094909;28;20047;-68
2023/08/26 07:38:32;;;;;;;3.95;2.33;;;16.70;99.90;;;;;;5095304;28;20115;-69
2023/08/26 07:40:57;;;;;;;2.50;2.30;;;16.90;99.90;;;;;;5095230;28;20059;-67
2023/08/26 07:43:23;;;;;;;2.40;2.20;;;16.60;99.90;;;;;;5076874;28;20040;-66
2023/08/26 07:45:49;;;;;;;3.00;2.70;;;16.40;99.90;;;;;;5077018;28;20040;-67
2023/08/26 07:48:15;;;;;;;3.90;2.20;;;16.60;99.90;;;;;;5093648;28;20524;-67
2023/08/26 07:50:41;;;;;;;2.60;2.40;;;17.00;99.90;;;;;;5095049;28;20548;-67
2023/08/26 07:53:06;;;;;;;3.05;2.75;;;16.60;99.90;;;;;;5075788;28;20044;-67
2023/08/26 07:55:32;;;;;;;2.58;2.22;;;17.20;99.90;;;;;;5094635;28;20513;-68
2023/08/26 07:57:58;;;;;;;3.05;2.75;;;17.10;99.90;;;;;;5094980;28;20047;-67
2023/08/26 08:00:24;;;;;;;1.95;1.77;;;16.90;99.90;;;;;;5094866;28;20059;-75
2023/08/26 08:02:50;;;;;;;2.05;1.90;;;17.10;99.90;;;;;;5076320;28;20510;-68
2023/08/26 08:05:16;;;;;;;2.35;2.25;;;17.00;99.90;;;;;;5076373;28;20047;-70
2023/08/26 08:07:42;;;;;;;3.35;2.17;;;16.70;99.90;;;;;;5093032;28;20546;-71
2023/08/26 08:10:08;;;;;;;2.25;2.10;;;16.80;99.90;;;;;;5094642;28;20097;-66
2023/08/26 08:12:35;;;;;;;2.22;2.08;;;16.80;99.90;;;;;;5094636;28;20040;-67
2023/08/26 08:15:01;;;;;;;2.60;2.40;;;16.70;99.90;;;;;;5094324;28;20133;-66
2023/08/26 08:17:27;;;;;;;2.40;2.20;;;16.80;99.90;;;;;;5094416;28;20086;-66
2023/08/26 08:19:52;;;;;;;2.22;1.90;;;16.80;99.90;;;;;;5094437;28;20495;-69
2023/08/26 08:22:36;;;;;;;1.75;1.65;;;16.80;99.90;;;;;;5076004;28;20044;-66
2023/08/26 08:25:03;;;;;;;2.42;1.98;;;16.70;99.90;;;;;;5094343;28;20039;-66
2023/08/26 08:27:30;;;;;;;2.22;2.03;;;16.90;99.90;;;;;;5094352;28;20442;-64
2023/08/26 08:29:57;;;;;;;2.42;1.90;;;17.00;99.90;;;;;;5075941;28;20075;-65
2023/08/26 08:32:22;;;;;;;2.08;1.70;;;17.10;99.90;;;;;;5094239;28;20453;-65
2023/08/26 08:34:48;;;;;;;1.65;1.50;;;17.20;99.90;;;;;;5075742;28;20047;-65
2023/08/26 08:37:13;;;;;;;2.35;1.83;;;17.40;99.90;;;;;;5075751;28;20054;-65
2023/08/26 08:39:39;;;;;;;3.22;2.15;;;17.70;99.90;;;;;;5093954;28;20036;-63
2023/08/26 08:42:09;;;;;;;1.98;1.65;;;17.80;99.90;;;;;;5093791;28;20417;-63
2023/08/26 08:44:40;;;;;;;1.98;1.77;;;17.80;99.90;;;;;;5093781;28;20560;-65
2023/08/26 08:47:06;;;;;;;1.73;1.63;;;18.20;99.90;;;;;;5075349;28;20406;-65
2023/08/26 08:49:33;;;;;;;2.50;2.30;;;18.50;99.90;;;;;;5093825;28;20036;-65
2023/08/26 08:52:00;;;;;;;3.47;2.05;;;18.20;99.90;;;;;;5093803;28;20040;-68
2023/08/26 08:54:27;;;;;;;1.92;1.50;;;18.20;99.90;;;;;;5093547;28;20476;-72
2023/08/26 08:56:54;;;;;;;2.38;1.52;;;18.60;99.90;;;;;;5093324;28;20048;-68
2023/08/26 08:59:20;;;;;;;1.60;1.50;;;18.70;99.90;;;;;;5093752;28;20032;-68
2023/08/26 09:01:46;;;;;;;1.60;1.50;;;18.90;99.90;;;;;;5075252;28;20087;-68
2023/08/26 09:04:11;;;;;;;2.00;1.60;;;18.40;99.90;;;;;;5093179;28;20094;-68
2023/08/26 09:06:38;;;;;;;1.52;1.42;;;18.20;99.90;;;;;;5075193;28;20047;-72
2023/08/26 09:09:10;;;;;;;1.42;1.33;;;18.20;99.90;;;;;;5074972;28;20050;-71
2023/08/26 09:11:37;;;;;;;1.88;1.77;;;18.70;99.90;;;;;;5075059;28;20048;-72
2023/08/26 09:14:04;;;;;;;1.85;1.55;;;18.10;99.90;;;;;;5093382;28;20414;-72
2023/08/26 09:16:34;;;;;;;2.55;1.55;;;18.10;99.90;;;;;;5074930;28;20051;-71
2023/08/26 09:19:00;;;;;;;1.83;1.60;;;18.20;99.90;;;;;;5075088;28;20036;-72
2023/08/26 09:21:26;;;;;;;1.40;1.30;;;18.10;99.90;;;;;;5075037;28;20043;-73
2023/08/26 09:23:52;;;;;;;1.98;1.42;;;18.40;99.90;;;;;;5093093;28;20538;-73
2023/08/26 09:26:17;;;;;;;1.30;1.20;;;18.50;99.90;;;;;;5093310;28;20083;-72
2023/08/26 09:28:47;;;;;;;2.30;1.70;;;18.50;99.90;;;;;;5074952;28;20035;-72
2023/08/26 09:31:13;;;;;;;1.38;1.27;;;19.30;99.90;;;;;;5075005;28;20101;-72
2023/08/26 09:33:39;;;;;;;1.52;1.30;;;18.50;99.90;;;;;;5075184;28;20478;-72
2023/08/26 09:36:05;;;;;;;1.65;1.50;;;18.50;99.90;;;;;;5074722;28;20044;-72
2023/08/26 09:38:47;;;;;;;1.30;1.20;;;18.80;99.90;;;;;;5093239;28;20487;-72
2023/08/26 09:41:19;;;;;;;1.73;1.30;;;18.80;99.00;;;;;;5093203;28;20075;-72
2023/08/26 09:43:47;;;;;;;1.65;1.55;;;19.10;99.90;;;;;;5074878;28;20459;-72
2023/08/26 09:46:20;;;;;;;2.30;1.88;;;19.10;99.90;;;;;;5074932;28;20063;-68
2023/08/26 09:48:48;;;;;;;2.08;1.40;;;19.20;99.90;;;;;;5093095;28;20048;-67
2023/08/26 09:51:27;;;;;;;1.48;1.33;;;19.50;99.90;;;;;;5074802;28;20090;-68
2023/08/26 09:53:54;;;;;;;1.25;1.13;;;19.40;97.20;;;;;;5092826;28;20441;-68
2023/08/26 09:56:24;;;;;;;2.38;1.35;;;19.20;97.70;;;;;;5092749;28;20044;-68
2023/08/26 09:58:51;;;;;;;1.20;1.10;;;19.10;97.00;;;;;;5093037;28;20028;-68
2023/08/26 10:01:21;;;;;;;1.92;1.17;;;19.50;98.20;;;;;;5074772;28;20080;-68
2023/08/26 10:04:00;;;;;;;1.40;1.20;;;19.10;97.10;;;;;;5091773;28;20047;-68
2023/08/26 10:06:29;;;;;;;1.55;1.45;;;19.00;96.40;;;;;;5092888;28;20047;-67
2023/08/26 10:09:05;;;;;;;3.72;1.40;;;18.40;94.80;;;;;;5074809;28;20082;-68
2023/08/26 10:11:35;;;;;;;1.25;0.90;;;19.10;96.30;;;;;;5092534;28;20090;-68
2023/08/26 10:14:04;;;;;;;1.10;1.00;;;19.00;97.70;;;;;;5092914;28;20384;-68
2023/08/26 10:16:31;;;;;;;2.15;1.17;;;18.70;98.40;;;;;;5076953;28;20137;-72
2023/08/26 10:18:59;;;;;;;2.38;1.30;;;18.60;97.70;;;;;;5078358;28;20410;-75
2023/08/26 10:21:25;;;;;;;1.75;1.20;;;19.10;98.10;;;;;;5096669;28;20051;-71
2023/08/26 10:23:51;;;;;;;1.67;1.10;;;18.50;98.30;;;;;;5078447;28;20128;-80
2023/08/26 10:26:19;;;;;;;1.60;1.20;;;18.70;98.20;;;;;;5078364;28;20465;-72
2023/08/26 10:28:47;;;;;;;1.67;1.10;;;18.30;99.60;;;;;;5096517;28;20407;-71
2023/08/26 10:31:14;;;;;;;3.03;1.35;;;18.50;99.80;;;;;;5096275;28;20099;-69
2023/08/26 10:34:00;;;;;;;1.75;1.13;;;18.30;99.90;;;;;;5096400;28;20035;-73
2023/08/26 10:36:26;;;;;;;1.63;0.98;;;18.90;99.20;;;;;;5096330;28;20398;-75
2023/08/26 10:38:58;;;;;;;1.13;0.95;;;19.10;99.90;;;;;;5096597;28;20038;-72
2023/08/26 10:41:25;;;;;;;0.98;0.93;;;19.00;99.90;;;;;;5077804;28;20086;-73
2023/08/26 10:43:58;;;;;;;1.55;1.10;;;19.10;99.90;;;;;;5077751;28;20090;-71
2023/08/26 10:46:56;;;;;;;1.40;0.85;;;19.30;97.40;;;;;;5096161;28;20114;-73
2023/08/26 10:49:28;;;;;;;0.70;0.60;;;19.40;93.50;;;;;;5095928;28;20086;-75
2023/08/26 10:52:30;;;;;;;1.25;1.02;;;19.40;94.70;;;;;;5096174;28;20124;-70
2023/08/26 10:54:55;;;;;;;1.02;0.50;;;19.80;82.10;;;;;;5013673;28;20049;-72
2023/08/26 10:57:21;;;;;;;1.55;0.70;;;19.60;92.80;;;;;;5061451;28;20052;-66
2023/08/26 10:59:47;;;;;;;0.75;0.70;;;19.10;90.60;;;;;;5095744;28;20082;-68
2023/08/26 11:02:13;;;;;;;1.27;0.90;;;19.10;87.60;;;;;;5095545;28;20533;-68
2023/08/26 11:04:43;;;;;;;0.63;0.63;;;19.00;88.20;;;;;;5095833;28;20119;-66
2023/08/26 11:07:16;;;;;;;0.60;0.47;;;18.90;87.90;;;;;;5095934;28;20036;-66
2023/08/26 11:09:41;;;;;;;0.82;0.70;;;19.10;85.00;;;;;;5095821;28;20434;-66
2023/08/26 11:12:27;;;;;;;0.47;0.40;;;19.80;83.40;;;;;;5077463;28;20055;-66
2023/08/26 11:15:02;;;;;;;0.88;0.63;;;19.70;71.30;;;;;;5077247;28;20130;-66
2023/08/26 11:17:28;;;;;;;0.55;0.50;;;19.20;58.80;;;;;;5060547;28;20043;-70
2023/08/26 11:19:54;;;;;;;1.15;0.70;;;19.50;71.30;;;;;;5095416;28;20040;-70
2023/08/26 11:22:25;;;;;;;1.00;0.60;;;19.30;70.00;;;;;;5077504;28;20341;-69
2023/08/26 11:24:50;;;;;;;1.08;0.55;;;19.30;62.10;;;;;;5095316;28;20028;-70
2023/08/26 11:27:16;;;;;;;0.68;0.50;;;19.20;65.90;;;;;;5094245;28;20036;-70
2023/08/26 11:29:43;;;;;;;0.90;0.70;;;19.50;62.50;;;;;;5095112;28;20384;-76
2023/08/26 11:32:08;;;;;;;1.23;0.57;;;19.40;53.60;;;;;;5077087;28;20111;-69
2023/08/26 11:34:34;;;;;;;0.50;0.47;;;19.50;51.60;;;;;;5095379;28;20044;-70
2023/08/26 11:37:00;;;;;;;0.45;0.43;;;19.40;31.00;;;;;;5095456;28;20047;-70
2023/08/26 11:39:36;;;;;;;0.68;0.50;;;19.90;40.60;;;;;;5095265;28;20032;-69
2023/08/26 11:42:14;;;;;;;0.57;0.50;;;20.20;20.90;;;;;;5076922;28;20164;-69
2023/08/26 11:44:45;;;;;;;0.40;0.40;;;20.30;8.20;;;;;;5094962;28;20032;-68
2023/08/26 11:47:12;;;;;;;0.73;0.50;;;21.30;1.00;;;;;;5094914;28;20039;-70
2023/08/26 11:49:39;;;;;;;0.88;0.45;;;20.20;1.00;;;;;;5076545;28;20055;-74
2023/08/26 11:52:06;;;;;;;0.73;0.50;;;20.10;1.00;;;;;;5076835;28;20143;-70
2023/08/26 11:54:31;;;;;;;1.98;0.90;;;19.80;1.00;;;;;;5076629;28;20051;-72
2023/08/26 11:56:58;;;;;;;0.82;0.80;;;20.00;1.00;;;;;;5076371;28;20052;-72
2023/08/26 11:59:23;;;;;;;0.80;0.50;;;20.00;1.00;;;;;;5076659;28;20082;-73
2023/08/26 12:01:49;;;;;;;0.93;0.60;;;20.00;1.00;;;;;;5094405;28;20083;-73
2023/08/26 12:04:15;;;;;;;0.77;0.77;;;19.90;5.30;;;;;;5076397;28;20051;-72
2023/08/26 12:06:42;;;;;;;0.60;0.60;;;20.00;1.00;;;;;;5076640;28;20505;-71
2023/08/26 12:09:07;;;;;;;0.55;0.55;;;19.90;1.00;;;;;;5076444;28;20048;-71
2023/08/26 12:11:34;;;;;;;0.32;0.32;;;20.10;99.90;;;;;;5076446;28;20047;-70
2023/08/26 12:14:00;;;;;;;0.77;0.60;;;20.10;99.90;;;;;;5076328;28;20040;-71
2023/08/26 12:16:33;;;;;;;0.40;0.40;;;20.10;99.90;;;;;;5076102;28;20050;-70
2023/08/26 12:19:00;;;;;;;0.30;0.30;;;20.20;1.00;;;;;;5076259;28;20057;-71
2023/08/26 12:21:29;;;;;;;0.68;0.68;;;20.40;1.00;;;;;;5075822;28;20406;-72
2023/08/26 12:23:55;;;;;;;0.90;0.70;;;20.20;46.00;;;;;;5059148;28;20032;-71
2023/08/26 12:26:21;;;;;;;1.48;1.10;;;20.50;1.00;;;;;;5076090;28;20093;-71
2023/08/26 12:28:49;;;;;;;0.60;0.60;;;20.60;89.50;;;;;;5076059;28;20552;-71
2023/08/26 12:31:14;;;;;;;0.50;0.50;;;20.80;99.90;;;;;;5075775;28;20048;-70
2023/08/26 12:33:40;;;;;;;0.50;0.50;;;21.00;99.90;;;;;;5075652;28;20047;-71
2023/08/26 12:36:05;;;;;;;0.40;0.40;;;21.50;99.90;;;;;;5075318;28;20071;-71
2023/08/26 12:38:31;;;;;;;0.60;0.60;;;21.30;1.00;;;;;;5075546;28;20036;-74
2023/08/26 12:40:58;;;;;;;0.70;0.70;;;21.50;99.90;;;;;;5075606;28;20075;-74
2023/08/26 12:43:23;;;;;;;0.60;0.52;;;21.40;1.00;;;;;;5075593;28;20119;-74
2023/08/26 12:45:49;;;;;;;0.60;0.60;;;21.40;99.90;;;;;;5058902;28;20495;-73
2023/08/26 12:48:15;;;;;;;0.57;0.57;;;21.50;18.50;;;;;;5075153;28;20044;-73
2023/08/26 12:50:40;;;;;;;0.52;0.52;;;21.60;1.00;;;;;;5058708;28;20040;-73
2023/08/26 12:53:06;;;;;;;0.50;0.50;;;21.80;1.00;;;;;;5075353;28;20036;-74
2023/08/26 12:55:31;;;;;;;1.13;0.90;;;21.80;99.90;;;;;;5075296;28;20383;-73
2023/08/26 12:57:57;;;;;;;0.68;0.68;;;21.60;99.90;;;;;;5075213;28;20036;-73